Time;durP1;ratioP1;P1;durP2;ratioP2;P2;SDS_P1;SDS_P2;PMS_P1;PMS_P2;Temp;Humidity;BMP_temperature;BMP_pressure;BME280_temperature;BME280_humidity;BME280_pressure;Samples;Min_cycle;Max_cycle;Signal;HPM_P1;HPM_P2
2022/03/27 00:00:34;;;;;;;18.43;12.33;;;;;;;0.39;100.00;102401.09;5013204;28;20038;-78
2022/03/27 00:03:01;;;;;;;19.03;11.70;;;;;;;0.41;100.00;102403.78;4994781;28;20076;-78
2022/03/27 00:05:29;;;;;;;16.27;10.70;;;;;;;0.38;100.00;102407.13;5004393;28;20034;-77
2022/03/27 00:07:56;;;;;;;16.47;9.87;;;;;;;0.26;100.00;102407.44;4991198;28;20052;-77
2022/03/27 00:10:25;;;;;;;13.93;8.87;;;;;;;0.24;100.00;102410.75;4980093;28;20042;-78
2022/03/27 00:12:54;;;;;;;15.67;9.33;;;;;;;0.19;100.00;102417.44;4989937;28;20074;-77
2022/03/27 00:15:24;;;;;;;14.83;9.40;;;;;;;0.20;100.00;102414.03;4998347;28;20041;-77
2022/03/27 00:17:53;;;;;;;14.70;9.03;;;;;;;0.14;100.00;102406.81;4969834;28;20045;-77
2022/03/27 00:20:21;;;;;;;14.30;8.73;;;;;;;0.12;100.00;102416.25;5003322;28;20046;-77
2022/03/27 00:22:55;;;;;;;15.77;8.68;;;;;;;0.08;100.00;102409.09;4987321;28;20430;-78
2022/03/27 00:25:22;;;;;;;14.50;8.87;;;;;;;0.04;100.00;102414.97;4988368;28;20619;-79
2022/03/27 00:27:49;;;;;;;16.67;9.53;;;;;;;0.03;100.00;102401.91;4992229;28;20112;-78
2022/03/27 00:30:15;;;;;;;18.80;9.70;;;;;;;0.05;100.00;102410.66;5013526;28;20795;-78
2022/03/27 00:32:42;;;;;;;18.87;10.40;;;;;;;0.07;100.00;102414.22;5020564;28;20088;-78
2022/03/27 00:35:09;;;;;;;16.27;10.13;;;;;;;0.01;100.00;102417.44;5001192;28;20045;-76
2022/03/27 00:37:36;;;;;;;15.53;9.07;;;;;;;-0.04;100.00;102411.97;5024689;28;20706;-77
2022/03/27 00:40:09;;;;;;;16.17;9.93;;;;;;;-0.03;100.00;102408.56;5009391;28;20073;-78
2022/03/27 00:42:42;;;;;;;14.00;9.90;;;;;;;-0.07;100.00;102411.84;4966146;28;20046;-79
2022/03/27 00:45:12;;;;;;;15.80;9.40;;;;;;;-0.09;100.00;102420.34;5013753;28;20046;-77
2022/03/27 00:47:44;;;;;;;17.50;10.13;;;;;;;-0.08;100.00;102414.38;5004889;28;20038;-78
2022/03/27 00:50:10;;;;;;;17.77;10.20;;;;;;;-0.08;100.00;102414.38;5005529;28;20407;-79
2022/03/27 00:52:37;;;;;;;20.67;11.23;;;;;;;-0.08;100.00;102420.44;5003625;28;20057;-78
2022/03/27 00:55:14;;;;;;;18.90;10.83;;;;;;;-0.07;100.00;102418.75;5005044;28;20050;-78
2022/03/27 00:57:44;;;;;;;20.50;10.83;;;;;;;-0.08;100.00;102419.56;4997474;28;20045;-78
2022/03/27 01:00:22;;;;;;;18.40;9.27;;;;;;;-0.07;100.00;102416.16;5002850;28;20050;-78
2022/03/27 01:02:50;;;;;;;15.53;8.80;;;;;;;-0.02;100.00;102420.72;4982974;28;20137;-79
2022/03/27 01:05:32;;;;;;;21.97;11.07;;;;;;;0.03;100.00;102418.38;4987959;28;20157;-76
2022/03/27 01:08:05;;;;;;;17.87;9.60;;;;;;;-0.09;100.00;102418.63;4973354;28;20054;-77
2022/03/27 01:10:41;;;;;;;15.93;9.50;;;;;;;-0.07;100.00;102413.53;5016837;28;20049;-77
2022/03/27 01:13:12;;;;;;;17.27;10.37;;;;;;;-0.08;100.00;102417.84;5005940;28;20061;-77
2022/03/27 01:15:47;;;;;;;19.57;10.13;;;;;;;0.03;100.00;102423.59;4989596;28;20053;-77
2022/03/27 01:18:14;;;;;;;18.27;9.87;;;;;;;0.16;100.00;102419.88;5019138;28;20115;-77
2022/03/27 01:20:41;;;;;;;14.50;8.80;;;;;;;0.11;100.00;102418.78;4996515;28;20050;-76
2022/03/27 01:23:13;;;;;;;14.80;8.43;;;;;;;-0.04;100.00;102422.38;4988412;28;20458;-77
2022/03/27 01:25:46;;;;;;;16.63;9.23;;;;;;;-0.06;100.00;102429.19;5006300;28;20045;-76
2022/03/27 01:28:26;;;;;;;15.23;9.07;;;;;;;-0.11;100.00;102425.47;4999291;28;20054;-77
2022/03/27 01:30:54;;;;;;;16.20;10.63;;;;;;;-0.02;100.00;102428.53;5023746;28;20538;-77
2022/03/27 01:33:20;;;;;;;16.90;9.67;;;;;;;-0.01;100.00;102427.72;5004305;28;20045;-77
2022/03/27 01:35:52;;;;;;;15.10;9.67;;;;;;;-0.10;100.00;102432.44;5005579;28;20045;-77
2022/03/27 01:38:19;;;;;;;15.83;9.43;;;;;;;-0.21;100.00;102433.59;4995329;28;20963;-77
2022/03/27 01:40:46;;;;;;;20.07;9.83;;;;;;;-0.14;100.00;102433.13;5008832;28;20038;-76
2022/03/27 01:43:13;;;;;;;14.57;9.13;;;;;;;-0.11;100.00;102433.25;4992118;28;20057;-77
2022/03/27 01:45:42;;;;;;;18.50;10.63;;;;;;;-0.17;100.00;102429.44;5011582;28;20038;-77
2022/03/27 01:48:09;;;;;;;18.90;10.30;;;;;;;-0.23;100.00;102434.34;5025700;28;20049;-77
2022/03/27 01:50:35;;;;;;;16.30;8.53;;;;;;;-0.25;100.00;102439.47;5007460;28;20038;-77
2022/03/27 01:53:04;;;;;;;15.30;9.00;;;;;;;-0.24;100.00;102449.03;4978578;28;20769;-77
2022/03/27 01:55:31;;;;;;;14.47;8.50;;;;;;;-0.22;100.00;102437.03;4999288;28;20498;-77
2022/03/27 01:57:58;;;;;;;16.50;9.00;;;;;;;-0.22;100.00;102444.81;5015961;28;20141;-77
2022/03/27 02:00:25;;;;;;;16.77;8.90;;;;;;;-0.22;100.00;102439.63;5057159;23;20506;-80
2022/03/27 02:02:52;;;;;;;15.07;9.27;;;;;;;-0.22;100.00;102436.13;4991843;28;20047;-78
2022/03/27 02:05:19;;;;;;;13.03;8.33;;;;;;;-0.23;100.00;102440.44;4986482;28;20039;-76
2022/03/27 02:07:48;;;;;;;17.37;8.83;;;;;;;-0.23;100.00;102434.34;4976671;28;20073;-79
2022/03/27 02:10:17;;;;;;;15.67;8.77;;;;;;;-0.25;100.00;102436.88;4988902;28;20046;-78
2022/03/27 02:12:44;;;;;;;17.33;9.73;;;;;;;-0.19;100.00;102437.16;4973406;28;20092;-78
2022/03/27 02:15:11;;;;;;;15.73;7.87;;;;;;;-0.02;100.00;102432.84;4972307;28;20101;-78
2022/03/27 02:17:38;;;;;;;17.97;9.03;;;;;;;0.06;100.00;102446.22;4956801;28;20047;-79
2022/03/27 02:20:08;;;;;;;16.20;8.87;;;;;;;0.00;100.00;102433.84;4983088;28;20038;-78
2022/03/27 02:22:35;;;;;;;15.77;9.07;;;;;;;-0.12;100.00;102443.59;5002276;28;20045;-78
2022/03/27 02:25:03;;;;;;;16.23;9.37;;;;;;;-0.14;100.00;102446.09;4986081;28;20038;-78
2022/03/27 02:27:29;;;;;;;14.70;8.33;;;;;;;-0.10;100.00;102444.53;4987723;28;20093;-78
2022/03/27 02:29:56;;;;;;;12.67;8.20;;;;;;;-0.21;100.00;102438.81;4970643;28;20065;-78
2022/03/27 02:32:23;;;;;;;17.07;9.43;;;;;;;-0.26;100.00;102435.06;4968867;28;20047;-77
2022/03/27 02:34:49;;;;;;;17.33;9.83;;;;;;;-0.26;100.00;102442.84;4986204;28;20049;-77
2022/03/27 02:37:16;;;;;;;18.03;9.67;;;;;;;-0.41;100.00;102444.69;4972470;28;20054;-78
2022/03/27 02:39:46;;;;;;;14.50;9.30;;;;;;;-0.41;100.00;102444.69;4986642;28;20046;-77
2022/03/27 02:42:12;;;;;;;16.03;9.47;;;;;;;-0.34;100.00;102441.56;4971368;28;20108;-78
2022/03/27 02:44:39;;;;;;;16.40;8.63;;;;;;;-0.25;100.00;102443.75;4972140;28;20034;-77
2022/03/27 02:47:06;;;;;;;15.70;9.37;;;;;;;-0.24;100.00;102449.03;4988110;28;20046;-78
2022/03/27 02:49:32;;;;;;;14.20;8.70;;;;;;;-0.38;100.00;102450.03;4980307;28;20051;-77
2022/03/27 02:51:59;;;;;;;16.17;9.00;;;;;;;-0.41;100.00;102449.88;4966805;28;20057;-78
2022/03/27 02:54:26;;;;;;;15.07;9.13;;;;;;;-0.42;100.00;102453.25;4981140;28;20561;-78
2022/03/27 02:56:52;;;;;;;13.90;8.80;;;;;;;-0.43;100.00;102452.34;4989038;28;20526;-78
2022/03/27 02:59:21;;;;;;;14.97;8.20;;;;;;;-0.38;100.00;102450.03;4988880;28;20046;-76
2022/03/27 03:01:48;;;;;;;14.83;8.20;;;;;;;-0.41;100.00;102440.38;4986444;28;20061;-78
2022/03/27 03:04:15;;;;;;;15.10;9.00;;;;;;;-0.50;100.00;102446.78;4972206;28;20096;-77
2022/03/27 03:06:42;;;;;;;15.37;8.60;;;;;;;-0.47;100.00;102444.34;4958704;28;20711;-77
2022/03/27 03:09:10;;;;;;;14.47;8.23;;;;;;;-0.44;100.00;102447.09;4969124;28;20042;-78
2022/03/27 03:11:37;;;;;;;13.20;9.10;;;;;;;-0.47;100.00;102444.34;4969038;28;20042;-77
2022/03/27 03:14:03;;;;;;;11.70;7.20;;;;;;;-0.45;100.00;102442.72;4980026;28;20046;-77
2022/03/27 03:16:50;;;;;;;13.40;8.53;;;;;;;-0.54;100.00;102437.03;4974672;28;20082;-77
2022/03/27 03:19:17;;;;;;;14.00;8.50;;;;;;;-0.57;100.00;102433.47;4986422;28;20050;-78
2022/03/27 03:21:44;;;;;;;10.97;7.00;;;;;;;-0.52;100.00;102440.59;4956062;28;20042;-77
2022/03/27 03:24:11;;;;;;;12.13;7.43;;;;;;;-0.53;100.00;102434.53;4987684;28;20054;-77
2022/03/27 03:26:37;;;;;;;13.40;7.63;;;;;;;-0.51;100.00;102432.88;4988550;28;20050;-77
2022/03/27 03:29:04;;;;;;;15.77;8.37;;;;;;;-0.48;100.00;102433.06;4962561;28;20054;-77
2022/03/27 03:31:31;;;;;;;15.67;9.90;;;;;;;-0.44;100.00;102435.00;4996234;28;20065;-77
2022/03/27 03:33:58;;;;;;;14.83;9.20;;;;;;;-0.41;100.00;102431.69;4968268;28;20047;-76
2022/03/27 03:36:24;;;;;;;17.17;10.40;;;;;;;-0.41;100.00;102429.09;4996075;28;20046;-78
2022/03/27 03:38:51;;;;;;;15.30;8.53;;;;;;;-0.36;100.00;102425.00;4971334;28;20042;-77
2022/03/27 03:41:21;;;;;;;12.57;7.63;;;;;;;-0.32;100.00;102421.78;4961380;28;20459;-78
2022/03/27 03:44:07;;;;;;;15.50;9.37;;;;;;;-0.37;100.00;102418.94;4987079;28;20042;-77
2022/03/27 03:46:34;;;;;;;14.93;8.07;;;;;;;-0.37;100.00;102415.44;4974898;28;20733;-78
2022/03/27 03:49:03;;;;;;;14.03;8.67;;;;;;;-0.36;100.00;102422.41;4988753;28;20050;-77
2022/03/27 03:51:30;;;;;;;15.37;8.30;;;;;;;-0.40;100.00;102420.50;4987819;28;20376;-78
2022/03/27 03:53:56;;;;;;;12.43;7.23;;;;;;;-0.41;100.00;102419.59;4987800;28;20046;-77
2022/03/27 03:56:23;;;;;;;15.30;8.67;;;;;;;-0.39;100.00;102410.19;5013531;28;20038;-77
2022/03/27 03:58:49;;;;;;;13.20;8.07;;;;;;;-0.37;100.00;102413.75;4989402;28;20582;-77
2022/03/27 04:01:16;;;;;;;13.77;8.30;;;;;;;-0.33;100.00;102420.00;5003936;28;20053;-77
2022/03/27 04:03:43;;;;;;;15.60;8.87;;;;;;;-0.30;100.00;102423.63;4987378;28;20038;-77
2022/03/27 04:06:10;;;;;;;15.53;9.40;;;;;;;-0.32;100.00;102420.06;5003292;28;20054;-78
2022/03/27 04:08:36;;;;;;;15.83;10.00;;;;;;;-0.32;100.00;102416.59;4969614;28;20093;-78
2022/03/27 04:11:03;;;;;;;13.00;8.40;;;;;;;-0.33;100.00;102417.41;4971379;28;20043;-77
2022/03/27 04:13:30;;;;;;;13.53;8.30;;;;;;;-0.33;100.00;102414.81;4961134;28;20046;-77
2022/03/27 04:15:56;;;;;;;14.20;7.73;;;;;;;-0.32;100.00;102417.47;4991560;28;20051;-78
2022/03/27 04:18:25;;;;;;;11.87;8.00;;;;;;;-0.30;100.00;102422.75;4985830;28;20086;-77
2022/03/27 04:20:51;;;;;;;12.17;8.17;;;;;;;-0.22;100.00;102417.94;4998454;28;20132;-78
2022/03/27 04:23:18;;;;;;;11.30;7.60;;;;;;;-0.24;100.00;102419.59;4980740;28;20410;-77
2022/03/27 04:25:45;;;;;;;12.37;7.00;;;;;;;-0.30;100.00;102425.34;4994854;28;20097;-77
2022/03/27 04:28:12;;;;;;;11.20;7.37;;;;;;;-0.24;100.00;102422.19;4967081;28;20121;-77
2022/03/27 04:30:39;;;;;;;11.73;7.33;;;;;;;-0.21;100.00;102427.53;4981841;28;20171;-78
2022/03/27 04:33:07;;;;;;;10.37;7.10;;;;;;;-0.33;100.00;102422.59;4972108;28;20515;-78
2022/03/27 04:35:35;;;;;;;10.40;6.73;;;;;;;-0.36;100.00;102430.22;4965118;28;20047;-75
2022/03/27 04:38:02;;;;;;;13.77;8.00;;;;;;;-0.36;100.00;102428.50;4988190;28;20053;-76
2022/03/27 04:40:29;;;;;;;12.00;8.27;;;;;;;-0.20;100.00;102431.91;4988725;28;20046;-78
2022/03/27 04:42:55;;;;;;;12.13;8.07;;;;;;;-0.31;100.00;102439.16;4971641;28;20074;-78
2022/03/27 04:45:22;;;;;;;13.80;7.73;;;;;;;-0.36;100.00;102430.22;4972376;28;20507;-77
2022/03/27 04:47:49;;;;;;;13.40;7.97;;;;;;;-0.36;100.00;102432.81;4985815;28;20057;-76
2022/03/27 04:50:16;;;;;;;14.97;8.37;;;;;;;-0.34;100.00;102431.19;4978395;28;20416;-76
2022/03/27 04:52:42;;;;;;;12.33;7.87;;;;;;;-0.33;100.00;102427.78;4971613;28;20137;-76
2022/03/27 04:55:09;;;;;;;12.03;7.57;;;;;;;-0.34;100.00;102428.56;4989438;28;20096;-77
2022/03/27 04:57:38;;;;;;;12.17;7.70;;;;;;;-0.31;100.00;102428.75;4975015;28;20128;-77
2022/03/27 05:00:10;;;;;;;15.93;8.73;;;;;;;-0.32;100.00;102430.47;4957211;28;20054;-77
2022/03/27 05:02:38;;;;;;;13.90;8.70;;;;;;;-0.20;100.00;102437.09;4968594;28;20097;-77
2022/03/27 05:05:06;;;;;;;12.83;7.67;;;;;;;-0.16;100.00;102437.34;4984884;28;20133;-77
2022/03/27 05:07:34;;;;;;;12.47;8.07;;;;;;;-0.14;100.00;102425.31;4991266;28;20034;-77
2022/03/27 05:10:00;;;;;;;10.73;7.77;;;;;;;-0.10;100.00;102439.34;5001480;28;20411;-78
2022/03/27 05:12:27;;;;;;;13.87;8.40;;;;;;;-0.22;100.00;102444.81;4974748;28;20057;-76
2022/03/27 05:14:54;;;;;;;14.33;7.60;;;;;;;-0.13;100.00;102440.09;5003518;28;20045;-77
2022/03/27 05:17:26;;;;;;;14.23;7.90;;;;;;;-0.07;100.00;102456.00;4962054;28;20038;-76
2022/03/27 05:19:53;;;;;;;11.03;6.60;;;;;;;-0.18;100.00;102449.34;4974506;28;20085;-75
2022/03/27 05:22:20;;;;;;;11.33;7.33;;;;;;;-0.21;100.00;102453.50;4990677;28;20048;-76
2022/03/27 05:24:47;;;;;;;13.90;7.67;;;;;;;-0.03;100.00;102460.53;4988786;28;20586;-75
2022/03/27 05:27:18;;;;;;;12.93;8.33;;;;;;;0.02;100.00;102459.88;4990926;28;20523;-76
2022/03/27 05:29:44;;;;;;;11.43;7.80;;;;;;;-0.04;100.00;102458.75;4974047;28;20046;-76
2022/03/27 05:32:11;;;;;;;13.53;8.07;;;;;;;-0.01;100.00;102463.19;4996828;28;20034;-75
2022/03/27 05:34:38;;;;;;;10.80;6.93;;;;;;;0.04;100.00;102461.75;4987463;28;20049;-76
2022/03/27 05:37:06;;;;;;;13.53;7.70;;;;;;;0.08;100.00;102474.06;4971967;28;20064;-76
2022/03/27 05:39:33;;;;;;;13.43;8.20;;;;;;;0.03;100.00;102485.94;4973992;28;20043;-76
2022/03/27 05:41:59;;;;;;;13.47;7.57;;;;;;;0.07;100.00;102476.59;5007321;28;20042;-76
2022/03/27 05:44:26;;;;;;;10.77;7.20;;;;;;;0.05;100.00;102486.00;4957409;28;20046;-76
2022/03/27 05:46:53;;;;;;;10.70;7.10;;;;;;;0.06;100.00;102486.09;4990995;28;20518;-76
2022/03/27 05:49:20;;;;;;;10.90;6.67;;;;;;;0.13;100.00;102487.31;4973762;28;20062;-76
2022/03/27 05:51:47;;;;;;;10.20;6.77;;;;;;;0.17;100.00;102481.44;4991897;28;20039;-76
2022/03/27 05:54:13;;;;;;;10.83;6.87;;;;;;;0.18;100.00;102485.84;4988834;28;20044;-76
2022/03/27 05:56:40;;;;;;;10.13;6.87;;;;;;;0.23;100.00;102482.63;4973120;28;20125;-76
2022/03/27 05:59:07;;;;;;;10.43;6.80;;;;;;;0.31;100.00;102480.44;4972541;28;20078;-78
2022/03/27 06:01:34;;;;;;;11.30;7.20;;;;;;;0.41;100.00;102484.38;4957335;28;20042;-77
2022/03/27 06:04:01;;;;;;;12.30;7.47;;;;;;;0.52;100.00;102484.13;4957987;28;20038;-76
2022/03/27 06:06:29;;;;;;;11.43;8.17;;;;;;;0.58;100.00;102486.09;5003843;28;20056;-77
2022/03/27 06:08:57;;;;;;;11.30;7.30;;;;;;;0.67;100.00;102472.66;4978880;28;20034;-77
2022/03/27 06:11:24;;;;;;;10.37;7.10;;;;;;;0.76;100.00;102480.94;4973627;28;20046;-78
2022/03/27 06:13:51;;;;;;;11.80;7.37;;;;;;;0.85;100.00;102483.97;4989245;28;20103;-77
2022/03/27 06:16:18;;;;;;;14.50;8.10;;;;;;;0.94;100.00;102481.81;4987633;28;20042;-78
2022/03/27 06:18:47;;;;;;;12.77;7.90;;;;;;;1.04;100.00;102485.75;4990718;28;20579;-78
2022/03/27 06:21:14;;;;;;;11.27;8.50;;;;;;;1.15;100.00;102491.44;4990255;28;20051;-78
2022/03/27 06:23:45;;;;;;;15.07;8.57;;;;;;;1.18;100.00;102492.50;4976437;28;20039;-78
2022/03/27 06:26:13;;;;;;;11.50;7.43;;;;;;;1.28;100.00;102481.69;4990968;28;20045;-78
2022/03/27 06:28:40;;;;;;;12.17;7.83;;;;;;;1.40;100.00;102492.66;4995494;28;20104;-78
2022/03/27 06:31:07;;;;;;;11.30;8.07;;;;;;;1.49;100.00;102489.59;4995052;28;20038;-78
2022/03/27 06:33:34;;;;;;;12.37;7.63;;;;;;;1.56;100.00;102494.25;5007459;28;20128;-79
2022/03/27 06:36:01;;;;;;;12.00;7.20;;;;;;;1.69;100.00;102491.41;4977427;28;20053;-79
2022/03/27 06:38:54;;;;;;;13.97;8.10;;;;;;;1.82;100.00;102497.13;4992097;28;20043;-79
2022/03/27 06:41:20;;;;;;;12.37;7.77;;;;;;;1.94;100.00;102505.53;4976889;28;20042;-77
2022/03/27 06:43:47;;;;;;;10.80;7.43;;;;;;;2.07;100.00;102504.31;4959134;28;20385;-78
2022/03/27 06:46:16;;;;;;;11.53;7.37;;;;;;;2.20;100.00;102488.41;4976752;28;20072;-78
2022/03/27 06:48:44;;;;;;;11.60;7.60;;;;;;;2.32;100.00;102499.34;4987546;28;20114;-77
2022/03/27 06:51:11;;;;;;;13.47;8.23;;;;;;;2.42;100.00;102496.28;4961156;28;20038;-78
2022/03/27 06:53:39;;;;;;;11.23;7.77;;;;;;;2.59;100.00;102493.50;4975991;28;20069;-77
2022/03/27 06:56:07;;;;;;;12.03;7.17;;;;;;;2.75;100.00;102494.19;4960876;28;20049;-77
2022/03/27 06:58:34;;;;;;;13.33;8.63;;;;;;;2.91;100.00;102495.69;4973216;28;20062;-78
2022/03/27 07:03:46;;;;;;;17.50;11.80;;;;;;;3.41;100.00;102493.28;4988792;28;20101;-77
2022/03/27 07:06:17;;;;;;;13.20;9.60;;;;;;;3.61;100.00;102477.50;4989384;28;20037;-78
2022/03/27 07:08:43;;;;;;;11.97;8.80;;;;;;;3.78;100.00;102478.13;4985231;28;20041;-77
2022/03/27 07:11:10;;;;;;;11.80;7.40;;;;;;;3.97;100.00;102474.47;4971676;28;20112;-78
2022/03/27 07:13:37;;;;;;;10.03;7.07;;;;;;;4.00;100.00;102479.78;4991507;28;20121;-78
2022/03/27 07:16:04;;;;;;;10.80;7.00;;;;;;;4.08;100.00;102469.59;4973646;28;20488;-78
2022/03/27 07:18:31;;;;;;;9.07;6.00;;;;;;;4.17;100.00;102483.00;4992210;28;20554;-78
2022/03/27 07:20:59;;;;;;;13.00;7.60;;;;;;;4.13;100.00;102475.91;4990824;28;20046;-77
2022/03/27 07:23:26;;;;;;;10.87;7.63;;;;;;;4.23;100.00;102471.03;4997173;28;20050;-77
2022/03/27 07:25:55;;;;;;;11.07;7.57;;;;;;;4.29;100.00;102475.59;4980669;28;20105;-77
2022/03/27 07:28:22;;;;;;;12.03;7.60;;;;;;;4.36;100.00;102477.56;4972259;28;20043;-77
2022/03/27 07:30:49;;;;;;;10.77;7.20;;;;;;;4.51;100.00;102469.34;4967721;28;20950;-77
2022/03/27 07:33:17;;;;;;;11.67;7.93;;;;;;;4.71;100.00;102468.28;4988722;28;20995;-77
2022/03/27 07:35:44;;;;;;;13.40;8.13;;;;;;;4.88;100.00;102471.44;4971060;28;20578;-77
2022/03/27 07:38:11;;;;;;;12.23;7.93;;;;;;;5.07;100.00;102462.41;4975184;28;20038;-78
2022/03/27 07:40:38;;;;;;;14.97;9.23;;;;;;;5.24;100.00;102458.56;4990358;28;20042;-78
2022/03/27 07:43:05;;;;;;;18.93;12.87;;;;;;;5.44;100.00;102456.53;4983380;28;20058;-77
2022/03/27 07:45:32;;;;;;;15.00;11.40;;;;;;;5.59;100.00;102451.75;4996700;28;20049;-77
2022/03/27 07:48:00;;;;;;;13.97;9.43;;;;;;;5.70;100.00;102445.91;5000977;28;20053;-77
2022/03/27 07:50:28;;;;;;;18.00;10.43;;;;;;;5.86;100.00;102440.25;4986948;28;20046;-77
2022/03/27 07:52:55;;;;;;;16.70;10.33;;;;;;;6.06;100.00;102438.22;4973543;28;20048;-77
2022/03/27 07:55:22;;;;;;;12.63;9.30;;;;;;;6.17;100.00;102432.38;4973406;28;20042;-78
2022/03/27 07:57:52;;;;;;;17.17;10.17;;;;;;;6.28;100.00;102445.75;4993738;28;20174;-78
2022/03/27 08:00:20;;;;;;;19.00;11.70;;;;;;;6.42;100.00;102446.13;4989348;28;20042;-77
2022/03/27 08:02:47;;;;;;;14.87;11.30;;;;;;;6.46;100.00;102453.22;4975359;28;20520;-77
2022/03/27 08:05:14;;;;;;;18.43;11.40;;;;;;;6.64;100.00;102456.31;4971349;28;20038;-77
2022/03/27 08:07:42;;;;;;;15.50;11.03;;;;;;;6.75;100.00;102454.84;4956013;28;20050;-77
2022/03/27 08:10:09;;;;;;;17.53;11.80;;;;;;;6.82;100.00;102458.50;4975124;28;20141;-77
2022/03/27 08:12:36;;;;;;;16.97;10.53;;;;;;;6.94;100.00;102465.75;4986935;28;20067;-77
2022/03/27 08:15:04;;;;;;;17.60;11.70;;;;;;;6.97;100.00;102463.19;4969871;28;20687;-77
2022/03/27 08:17:31;;;;;;;17.50;10.83;;;;;;;7.13;100.00;102467.94;4987821;28;20030;-77
2022/03/27 08:19:58;;;;;;;19.37;12.37;;;;;;;7.25;100.00;102473.50;4997563;28;20105;-77
2022/03/27 08:22:25;;;;;;;18.37;12.73;;;;;;;7.32;100.00;102458.75;4962821;28;20105;-76
2022/03/27 08:24:53;;;;;;;19.27;11.77;;;;;;;7.50;100.00;102464.41;4964314;28;20077;-76
2022/03/27 08:27:20;;;;;;;16.53;11.67;;;;;;;7.56;100.00;102463.63;4968646;28;20075;-77
2022/03/27 08:29:47;;;;;;;18.97;11.57;;;;;;;7.62;100.00;102463.75;4998819;28;20042;-77
2022/03/27 08:32:16;;;;;;;15.75;11.40;;;;;;;7.70;100.00;102462.16;4987826;28;20034;-77
2022/03/27 08:34:45;;;;;;;20.23;11.90;;;;;;;7.90;100.00;102463.47;4974099;28;20034;-77
2022/03/27 08:37:14;;;;;;;18.33;10.63;;;;;;;8.01;100.00;102452.25;4974574;28;20105;-77
2022/03/27 08:39:44;;;;;;;16.27;10.13;;;;;;;8.19;100.00;102457.84;4972449;28;20484;-78
2022/03/27 08:42:16;;;;;;;14.27;10.13;;;;;;;8.24;100.00;102453.56;4972881;28;20038;-77
2022/03/27 08:44:43;;;;;;;17.30;10.55;;;;;;;8.43;100.00;102454.78;4991685;28;20508;-77
2022/03/27 08:47:16;;;;;;;14.25;9.90;;;;;;;8.65;100.00;102453.38;4990401;28;20042;-77
2022/03/27 08:50:02;;;;;;;14.55;9.70;;;;;;;8.76;100.00;102449.19;4984986;28;20137;-77
2022/03/27 08:52:39;;;;;;;14.05;9.93;;;;;;;9.05;100.00;102454.00;4991565;28;20133;-77
2022/03/27 08:55:17;;;;;;;16.00;9.93;;;;;;;9.17;100.00;102460.34;4986686;28;20061;-77
2022/03/27 08:57:54;;;;;;;13.43;8.77;;;;;;;9.36;100.00;102461.47;4975994;28;20062;-77
2022/03/27 09:00:22;;;;;;;14.00;9.07;;;;;;;9.46;100.00;102454.56;4980270;28;20054;-77
2022/03/27 09:02:54;;;;;;;11.77;8.37;;;;;;;9.70;100.00;102452.22;4986823;28;20046;-77
2022/03/27 09:05:22;;;;;;;13.50;8.27;;;;;;;9.81;98.90;102441.78;4986489;28;20324;-77
2022/03/27 09:07:50;;;;;;;12.88;8.35;;;;;;;10.03;100.00;102443.78;5073053;23;20057;-81
2022/03/27 09:10:17;;;;;;;13.20;9.30;;;;;;;10.19;99.14;102441.31;4961168;28;20258;-82
2022/03/27 09:12:45;;;;;;;11.50;8.13;;;;;;;10.29;97.92;102437.91;4972789;28;20069;-82
2022/03/27 09:15:19;;;;;;;11.75;8.23;;;;;;;10.45;96.96;102429.25;4978000;28;20540;-80
2022/03/27 09:17:59;;;;;;;11.50;7.93;;;;;;;10.85;93.12;102425.16;4959418;28;20034;-81
2022/03/27 09:20:43;;;;;;;10.70;7.75;;;;;;;10.86;92.50;102426.03;4991159;28;20065;-80
2022/03/27 09:23:14;;;;;;;10.40;8.18;;;;;;;11.04;90.58;102441.13;4984609;28;20103;-79
2022/03/27 09:25:48;;;;;;;12.25;7.82;;;;;;;11.22;90.14;102433.28;4980462;28;20486;-82
2022/03/27 09:28:22;;;;;;;10.75;7.90;;;;;;;11.37;89.77;102438.66;4974210;28;20827;-81
2022/03/27 09:30:49;;;;;;;10.65;7.38;;;;;;;11.63;86.08;102435.25;4962322;28;20060;-82
2022/03/27 09:33:32;;;;;;;10.82;7.47;;;;;;;11.94;85.20;102422.97;4973351;28;20051;-81
2022/03/27 09:36:21;;;;;;;10.90;7.43;;;;;;;12.34;84.28;102427.44;4995067;28;20058;-82
2022/03/27 09:39:16;;;;;;;10.25;7.68;;;;;;;12.73;81.34;102425.69;4979074;28;20046;-81
2022/03/27 09:41:44;;;;;;;9.35;7.50;;;;;;;13.10;80.88;102422.94;4964852;28;20070;-81
2022/03/27 09:44:14;;;;;;;10.18;6.90;;;;;;;13.39;79.61;102420.25;4979154;28;20435;-82
2022/03/27 09:46:57;;;;;;;8.82;6.72;;;;;;;13.67;74.79;102408.59;4962805;28;20046;-80
2022/03/27 09:49:46;;;;;;;9.10;6.82;;;;;;;13.94;75.62;102404.88;4989792;28;20110;-80
2022/03/27 09:52:15;;;;;;;9.35;6.88;;;;;;;14.09;68.67;102410.09;4976174;28;20081;-81
2022/03/27 09:54:47;;;;;;;10.48;7.53;;;;;;;14.15;69.20;102403.88;4975521;28;20496;-80
2022/03/27 09:57:25;;;;;;;8.43;5.97;;;;;;;13.97;67.55;102404.88;4977132;28;20042;-81
2022/03/27 09:59:54;;;;;;;8.32;5.93;;;;;;;14.14;69.38;102398.56;4981445;28;20046;-79
2022/03/27 10:02:26;;;;;;;8.80;6.45;;;;;;;14.42;68.27;102396.56;4994716;28;20054;-80
2022/03/27 10:05:05;;;;;;;8.77;6.32;;;;;;;14.69;66.90;102395.44;4995799;28;20042;-82
2022/03/27 10:07:33;;;;;;;8.80;5.85;;;;;;;14.92;66.14;102389.00;5000754;28;20045;-82
2022/03/27 10:10:00;;;;;;;8.85;5.93;;;;;;;15.07;64.25;102379.97;4991501;28;20046;-82
2022/03/27 10:12:29;;;;;;;8.05;6.18;;;;;;;15.23;63.76;102385.09;4979884;28;20035;-81
2022/03/27 10:14:59;;;;;;;10.45;5.97;;;;;;;14.80;62.67;102377.63;4990427;28;20042;-82
2022/03/27 10:17:27;;;;;;;9.00;5.43;;;;;;;14.82;63.45;102384.66;4982629;28;20070;-81
2022/03/27 10:19:59;;;;;;;7.07;5.97;;;;;;;14.69;63.14;102379.47;4977519;28;20104;-81
2022/03/27 10:22:28;;;;;;;8.73;6.10;;;;;;;14.60;62.57;102377.78;4976984;28;20097;-82
2022/03/27 10:24:57;;;;;;;6.70;5.22;;;;;;;14.52;63.37;102380.53;4978445;28;20060;-81
2022/03/27 10:27:24;;;;;;;11.13;5.60;;;;;;;14.42;60.63;102377.94;4999744;28;20076;-82
2022/03/27 10:29:52;;;;;;;7.22;5.00;;;;;;;14.62;61.38;102376.88;4970148;28;20102;-81
2022/03/27 10:32:19;;;;;;;6.22;4.82;;;;;;;14.88;60.73;102370.41;4969530;28;20069;-82
2022/03/27 10:34:59;;;;;;;8.00;5.65;;;;;;;14.76;60.21;102368.75;4998036;28;20451;-82
2022/03/27 10:37:34;;;;;;;7.03;4.60;;;;;;;14.92;63.27;102350.84;4996277;28;20500;-81
2022/03/27 10:40:07;;;;;;;6.80;5.15;;;;;;;15.27;61.92;102349.53;4999006;28;21919;-83
2022/03/27 10:43:03;;;;;;;8.00;5.47;;;;;;;15.57;60.15;102338.47;4991989;28;20088;-81
2022/03/27 10:45:32;;;;;;;6.75;5.03;;;;;;;15.61;59.97;102340.22;4995316;28;20042;-82
2022/03/27 10:48:16;;;;;;;7.40;5.22;;;;;;;15.80;59.17;102340.81;4974304;28;20129;-81
2022/03/27 10:50:51;;;;;;;13.95;11.50;;;;;;;16.02;58.84;102339.56;4965552;28;20065;-81
2022/03/27 10:53:20;;;;;;;6.40;4.95;;;;;;;16.33;56.26;102342.63;4990308;28;20046;-79
2022/03/27 10:55:48;;;;;;;9.32;4.95;;;;;;;16.45;54.99;102329.94;4991767;28;20058;-82
2022/03/27 10:58:31;;;;;;;6.90;4.38;;;;;;;16.64;55.25;102339.38;4993768;28;20483;-84
2022/03/27 11:01:07;;;;;;;6.05;4.13;;;;;;;16.49;54.85;102332.56;4980884;28;20038;-82
2022/03/27 11:03:44;;;;;;;7.00;4.30;;;;;;;16.51;54.29;102332.53;4977636;28;20501;-82
2022/03/27 11:06:25;;;;;;;7.90;5.07;;;;;;;15.84;55.38;102317.66;4979721;28;20495;-83
2022/03/27 11:08:53;;;;;;;6.05;3.80;;;;;;;15.47;56.35;102328.88;4987242;28;20100;-84
2022/03/27 11:11:49;;;;;;;5.90;3.65;;;;;;;15.58;56.72;102321.59;4978944;28;20042;-85
2022/03/27 11:14:23;;;;;;;6.13;3.25;;;;;;;15.67;56.37;102321.47;4957740;28;20046;-82
2022/03/27 11:17:04;;;;;;;5.47;3.28;;;;;;;15.63;54.64;102326.88;4976678;28;20047;-83
2022/03/27 11:19:42;;;;;;;5.90;4.00;;;;;;;15.19;55.21;102326.56;4993056;28;20395;-79
2022/03/27 11:22:43;;;;;;;5.05;3.95;;;;;;;14.87;56.57;102324.28;4991703;28;20048;-81
2022/03/27 11:25:36;;;;;;;5.30;3.83;;;;;;;14.86;57.56;102319.88;4989224;28;20053;-81
2022/03/27 11:28:18;;;;;;;5.68;3.72;;;;;;;14.94;58.50;102325.09;4993981;28;20053;-80